createdAt,value
2019-01-30T00:02:09.306Z,-2.12
2019-01-30T00:04:39.893Z,-2.15
2019-01-30T00:07:10.681Z,-2.19
2019-01-30T00:09:41.205Z,-2.21
2019-01-30T00:12:11.963Z,-2.25
2019-01-30T00:14:42.699Z,-2.23
2019-01-30T00:17:13.694Z,-2.17
2019-01-30T00:19:44.328Z,-2.20
2019-01-30T00:22:14.848Z,-2.19
2019-01-30T00:24:45.475Z,-2.17
2019-01-30T00:27:16.295Z,-2.22
2019-01-30T00:29:46.906Z,-2.27
2019-01-30T00:32:17.416Z,-2.27
2019-01-30T00:34:48.075Z,-2.25
2019-01-30T00:37:18.617Z,-2.22
2019-01-30T00:39:49.147Z,-2.23
2019-01-30T00:42:19.843Z,-2.22
2019-01-30T00:44:50.669Z,-2.15
2019-01-30T00:47:21.243Z,-2.12
2019-01-30T00:49:52.025Z,-2.14
2019-01-30T00:52:22.706Z,-2.16
2019-01-30T00:54:53.323Z,-2.22
2019-01-30T00:57:24.420Z,-2.29
2019-01-30T00:59:55.124Z,-2.28
2019-01-30T01:02:25.789Z,-2.27
2019-01-30T01:04:56.395Z,-2.25
2019-01-30T01:07:27.141Z,-2.24
2019-01-30T01:09:57.823Z,-2.22
2019-01-30T01:12:28.505Z,-2.24
2019-01-30T01:14:59.140Z,-2.24
2019-01-30T01:17:29.833Z,-2.27
2019-01-30T01:20:00.516Z,-2.31
2019-01-30T01:22:31.267Z,-2.34
2019-01-30T01:25:01.933Z,-2.37
2019-01-30T01:27:32.544Z,-2.41
2019-01-30T01:30:03.138Z,-2.39
2019-01-30T01:32:33.921Z,-2.42
2019-01-30T01:35:05.256Z,-2.44
2019-01-30T01:37:36.154Z,-2.44
2019-01-30T01:40:09.049Z,-2.43
2019-01-30T01:42:39.628Z,-2.44
2019-01-30T01:45:14.177Z,-2.45
2019-01-30T01:47:45.045Z,-2.39
2019-01-30T01:50:19.333Z,-2.40
2019-01-30T01:52:50.031Z,-2.37
2019-01-30T01:55:21.596Z,-2.41
2019-01-30T01:57:52.228Z,-2.44
2019-01-30T02:00:24.007Z,-2.44
2019-01-30T02:02:54.734Z,-2.47
2019-01-30T02:05:25.337Z,-2.52
2019-01-30T02:07:55.964Z,-2.49
2019-01-30T02:10:26.748Z,-2.52
2019-01-30T02:12:57.440Z,-2.64
2019-01-30T02:15:28.224Z,-2.68
2019-01-30T02:17:58.863Z,-2.73
2019-01-30T02:20:32.727Z,-2.72
2019-01-30T02:23:03.549Z,-2.78
2019-01-30T02:25:34.156Z,-2.74
2019-01-30T02:28:04.852Z,-2.77
2019-01-30T02:30:46.750Z,-2.78
2019-01-30T02:33:07.910Z,-2.76
2019-01-30T02:35:38.604Z,-2.75
2019-01-30T02:38:09.305Z,-2.78
2019-01-30T02:40:40.007Z,-2.80
2019-01-30T02:43:10.709Z,-2.77
2019-01-30T02:45:41.387Z,-2.71
2019-01-30T02:48:12.062Z,-2.69
2019-01-30T02:50:42.634Z,-2.66
2019-01-30T02:53:13.274Z,-2.65
2019-01-30T02:55:43.994Z,-2.63
2019-01-30T02:58:14.885Z,-2.66
2019-01-30T03:00:45.638Z,-2.63
2019-01-30T03:03:16.191Z,-2.63
2019-01-30T03:05:46.816Z,-2.62
2019-01-30T03:08:17.499Z,-2.66
2019-01-30T03:10:48.117Z,-2.67
2019-01-30T03:13:18.732Z,-2.62
2019-01-30T03:15:49.336Z,-2.72
2019-01-30T03:18:20.326Z,-2.71
2019-01-30T03:20:50.863Z,-2.70
2019-01-30T03:23:21.455Z,-2.68
2019-01-30T03:25:52.022Z,-2.72
2019-01-30T03:28:22.445Z,-2.73
2019-01-30T03:30:53.096Z,-2.77
2019-01-30T03:33:23.896Z,-2.78
2019-01-30T03:35:54.624Z,-2.73
2019-01-30T03:38:25.200Z,-2.79
2019-01-30T03:40:55.805Z,-2.82
2019-01-30T03:43:26.445Z,-2.83
2019-01-30T03:45:57.089Z,-2.89
2019-01-30T03:48:27.716Z,-2.92
2019-01-30T03:50:58.436Z,-2.96
2019-01-30T03:53:28.970Z,-2.98
2019-01-30T03:55:59.628Z,-3.04
2019-01-30T03:58:30.387Z,-3.01
2019-01-30T04:01:01.017Z,-2.96
2019-01-30T04:03:31.729Z,-3.01
2019-01-30T04:06:02.262Z,-2.97
2019-01-30T04:08:32.952Z,-2.97
2019-01-30T04:11:03.596Z,-3.03
2019-01-30T04:13:34.356Z,-3.01
2019-01-30T04:16:05.100Z,-3.01
2019-01-30T04:18:35.688Z,-3.01
2019-01-30T04:21:06.477Z,-3.04
2019-01-30T04:23:37.168Z,-3.02
2019-01-30T04:26:07.766Z,-3.04
2019-01-30T04:28:38.589Z,-3.06
2019-01-30T04:31:09.345Z,-3.09
2019-01-30T04:33:39.870Z,-3.09
2019-01-30T04:36:10.550Z,-3.16
2019-01-30T04:38:41.470Z,-3.16
2019-01-30T04:41:12.070Z,-3.18
2019-01-30T04:43:42.686Z,-3.15
2019-01-30T04:46:13.415Z,-3.13
2019-01-30T04:48:44.166Z,-3.16
2019-01-30T04:51:15.118Z,-3.20
2019-01-30T04:53:45.824Z,-3.24
2019-01-30T04:56:16.412Z,-3.19
2019-01-30T04:58:47.156Z,-3.21
2019-01-30T05:01:18.073Z,-3.18
2019-01-30T05:03:48.752Z,-3.22
2019-01-30T05:06:19.422Z,-3.19
2019-01-30T05:08:50.208Z,-3.19
2019-01-30T05:11:20.881Z,-3.18
2019-01-30T05:13:51.580Z,-3.17
2019-01-30T05:16:22.158Z,-3.17
2019-01-30T05:18:52.806Z,-3.18
2019-01-30T05:21:23.345Z,-3.15
2019-01-30T05:23:53.863Z,-3.14
2019-01-30T05:26:24.674Z,-3.11
2019-01-30T05:28:55.903Z,-3.12
2019-01-30T05:31:26.507Z,-3.09
2019-01-30T05:33:57.108Z,-3.03
2019-01-30T05:36:28.461Z,-3.03
2019-01-30T05:38:59.320Z,-3.06
2019-01-30T05:41:30.039Z,-3.06
2019-01-30T05:44:01.058Z,-2.96
2019-01-30T05:46:31.763Z,-2.99
2019-01-30T05:49:02.743Z,-2.99
2019-01-30T05:51:33.445Z,-2.95
2019-01-30T05:54:04.003Z,-2.96
2019-01-30T05:56:34.507Z,-3.01
2019-01-30T05:59:05.199Z,-3.04
2019-01-30T06:01:35.910Z,-3.05
2019-01-30T06:04:06.584Z,-3.10
2019-01-30T06:06:37.253Z,-3.14
2019-01-30T06:09:09.134Z,-3.12
2019-01-30T06:11:39.826Z,-3.15
2019-01-30T06:14:10.535Z,-3.14
2019-01-30T06:16:41.168Z,-3.10
2019-01-30T06:19:11.754Z,-3.07
2019-01-30T06:21:42.190Z,-3.12
2019-01-30T06:24:12.719Z,-3.17
2019-01-30T06:26:43.307Z,-3.09
2019-01-30T06:29:13.925Z,-3.09
2019-01-30T06:31:44.813Z,-3.11
2019-01-30T06:34:15.275Z,-3.10
2019-01-30T06:36:45.871Z,-3.05
2019-01-30T06:39:16.524Z,-3.02
2019-01-30T06:41:47.041Z,-2.98
2019-01-30T06:44:17.415Z,-2.98
2019-01-30T06:46:48.010Z,-2.92
2019-01-30T06:49:18.618Z,-2.79
2019-01-30T06:51:49.363Z,-2.72
2019-01-30T06:54:19.934Z,-2.62
2019-01-30T06:56:50.604Z,-2.56
2019-01-30T06:59:21.588Z,-2.49
2019-01-30T07:01:52.754Z,-2.52
2019-01-30T07:04:23.285Z,-2.44
2019-01-30T07:06:54.069Z,-2.33
2019-01-30T07:09:24.653Z,-2.28
2019-01-30T07:11:55.313Z,-2.13
2019-01-30T07:14:26.040Z,-2.00
2019-01-30T07:16:56.509Z,-1.78
2019-01-30T07:19:27.070Z,-1.52
2019-01-30T07:21:57.814Z,-1.29
2019-01-30T07:24:28.355Z,-0.87
2019-01-30T07:26:58.892Z,-0.38
2019-01-30T07:29:29.903Z,0.09
2019-01-30T07:32:00.520Z,0.34
2019-01-30T07:34:31.166Z,-0.15
2019-01-30T07:37:01.760Z,-0.13
2019-01-30T07:39:32.271Z,-0.01
2019-01-30T07:42:02.816Z,-0.38
2019-01-30T07:44:33.329Z,-0.74
2019-01-30T07:47:04.194Z,-0.60
2019-01-30T07:49:34.874Z,0.15
2019-01-30T07:52:05.916Z,1.23
2019-01-30T07:54:36.757Z,2.10
2019-01-30T07:57:07.325Z,2.81
2019-01-30T07:59:37.844Z,3.89
2019-01-30T08:02:08.633Z,3.72
2019-01-30T08:04:39.195Z,3.85
2019-01-30T08:07:09.869Z,4.05
2019-01-30T08:09:40.770Z,4.47
2019-01-30T08:12:12.642Z,4.71
2019-01-30T08:14:43.433Z,4.79
2019-01-30T08:17:14.035Z,5.50
2019-01-30T08:19:44.808Z,5.25
2019-01-30T08:22:15.595Z,5.93
2019-01-30T08:24:48.143Z,6.31
2019-01-30T08:27:18.953Z,5.94
2019-01-30T08:29:49.896Z,5.71
2019-01-30T08:32:22.365Z,6.59
2019-01-30T08:34:53.149Z,6.44
2019-01-30T08:37:23.726Z,6.27
2019-01-30T08:39:54.301Z,5.72
2019-01-30T08:42:24.992Z,6.38
2019-01-30T08:44:55.624Z,6.02
2019-01-30T08:47:26.111Z,6.17
2019-01-30T08:49:56.942Z,7.39
2019-01-30T08:52:27.559Z,7.28
2019-01-30T08:54:58.185Z,7.49
2019-01-30T08:57:28.926Z,7.48
2019-01-30T08:59:59.435Z,7.45
2019-01-30T09:02:30.129Z,7.18
2019-01-30T09:05:00.985Z,5.96
2019-01-30T09:07:31.576Z,7.00
2019-01-30T09:10:02.224Z,6.86
2019-01-30T09:12:32.702Z,6.62
2019-01-30T09:15:03.441Z,7.34
2019-01-30T09:17:34.458Z,7.24
2019-01-30T09:20:05.823Z,6.62
2019-01-30T09:22:36.294Z,6.33
2019-01-30T09:25:08.819Z,7.13
2019-01-30T09:27:39.510Z,6.67
2019-01-30T09:30:15.977Z,7.43
2019-01-30T09:32:46.740Z,7.10
2019-01-30T09:35:17.836Z,7.86
2019-01-30T09:37:48.687Z,7.17
2019-01-30T09:40:19.801Z,6.61
2019-01-30T09:42:50.455Z,7.02
2019-01-30T09:45:21.219Z,6.39
2019-01-30T09:47:51.942Z,7.06
2019-01-30T09:50:22.984Z,7.37
2019-01-30T09:52:53.997Z,6.89
2019-01-30T09:55:24.851Z,8.64
2019-01-30T09:57:55.353Z,8.20
2019-01-30T10:00:29.630Z,7.94
2019-01-30T10:03:00.458Z,7.77
2019-01-30T10:05:30.980Z,7.37
2019-01-30T10:08:01.551Z,6.75
2019-01-30T10:10:35.078Z,6.04
2019-01-30T10:13:06.423Z,6.73
2019-01-30T10:15:40.122Z,7.06
2019-01-30T10:18:12.272Z,6.84
2019-01-30T10:20:45.069Z,7.52
2019-01-30T10:23:15.788Z,7.38
2019-01-30T10:25:46.516Z,7.73
2019-01-30T10:28:17.283Z,7.93
2019-01-30T10:30:48.729Z,7.86
2019-01-30T10:33:19.445Z,7.57
2019-01-30T10:35:50.062Z,7.20
2019-01-30T10:38:20.677Z,7.19
2019-01-30T10:40:51.491Z,6.81
2019-01-30T10:43:22.166Z,7.63
2019-01-30T10:45:52.732Z,7.59
2019-01-30T10:48:23.389Z,7.94
2019-01-30T10:50:54.033Z,8.21
2019-01-30T10:53:24.717Z,7.38
2019-01-30T10:55:55.265Z,7.78
2019-01-30T10:58:25.893Z,7.74
2019-01-30T11:00:57.933Z,6.86
2019-01-30T11:03:29.111Z,7.28
2019-01-30T11:06:00.621Z,6.55
2019-01-30T11:08:34.467Z,6.87
2019-01-30T11:11:08.116Z,7.16
2019-01-30T11:13:38.589Z,6.86
2019-01-30T11:16:13.714Z,6.50
2019-01-30T11:18:45.119Z,6.51
2019-01-30T11:21:15.697Z,6.47
2019-01-30T11:23:46.152Z,6.84
2019-01-30T11:26:16.938Z,6.75
2019-01-30T11:28:47.804Z,6.78
2019-01-30T11:31:19.124Z,6.67
2019-01-30T11:33:50.600Z,6.88
2019-01-30T11:36:21.187Z,7.11
2019-01-30T11:38:56.078Z,6.04
2019-01-30T11:41:31.584Z,6.95
2019-01-30T11:44:02.344Z,7.07
2019-01-30T11:46:33.139Z,7.06
2019-01-30T11:49:03.708Z,6.91
2019-01-30T11:51:34.281Z,7.41
2019-01-30T11:54:04.770Z,7.79
2019-01-30T11:56:35.417Z,7.39
2019-01-30T11:59:05.912Z,7.25
2019-01-30T12:01:36.691Z,7.42
2019-01-30T12:04:17.513Z,6.66
2019-01-30T12:06:39.527Z,7.14
2019-01-30T12:09:10.103Z,6.61
2019-01-30T12:11:40.710Z,6.98
2019-01-30T12:14:11.273Z,7.40
2019-01-30T12:16:41.872Z,6.83
2019-01-30T12:19:12.585Z,7.18
2019-01-30T12:21:43.084Z,6.74
2019-01-30T12:24:13.693Z,6.47
2019-01-30T12:26:44.252Z,6.52
2019-01-30T12:29:14.752Z,6.45
2019-01-30T12:31:45.277Z,6.62
2019-01-30T12:34:15.902Z,6.40
2019-01-30T12:36:46.452Z,6.37
2019-01-30T12:39:17.004Z,5.45
2019-01-30T12:41:47.488Z,5.48
2019-01-30T12:44:18.035Z,4.90
2019-01-30T12:46:48.697Z,4.75
2019-01-30T12:49:19.301Z,4.06
2019-01-30T12:51:49.801Z,4.01
2019-01-30T12:54:20.379Z,3.53
2019-01-30T12:56:51.026Z,3.36
2019-01-30T12:59:21.445Z,3.03
2019-01-30T13:01:51.927Z,3.05
2019-01-30T13:04:23.409Z,3.20
2019-01-30T13:06:54.131Z,2.99
2019-01-30T13:09:24.977Z,2.91
2019-01-30T13:11:55.452Z,2.79
2019-01-30T13:14:26.057Z,2.67
2019-01-30T13:16:56.655Z,2.65
2019-01-30T13:19:27.234Z,2.58
2019-01-30T13:22:00.775Z,2.54
2019-01-30T13:24:31.287Z,2.52
2019-01-30T13:27:01.921Z,2.31
2019-01-30T13:29:32.417Z,2.26
2019-01-30T13:32:03.132Z,2.09
2019-01-30T13:34:33.755Z,1.90
2019-01-30T13:37:04.753Z,1.88
2019-01-30T13:39:35.715Z,1.88
2019-01-30T13:42:06.303Z,1.75
2019-01-30T13:44:36.862Z,1.82
2019-01-30T13:47:07.513Z,1.73
2019-01-30T13:49:38.629Z,1.73
2019-01-30T13:52:09.145Z,1.70
2019-01-30T13:54:41.251Z,1.73
2019-01-30T13:57:11.860Z,1.64
2019-01-30T13:59:42.547Z,1.65
2019-01-30T14:02:13.184Z,1.54
2019-01-30T14:04:43.990Z,1.62
2019-01-30T14:07:14.948Z,1.54
2019-01-30T14:09:45.519Z,1.42
2019-01-30T14:12:16.061Z,1.48
2019-01-30T14:14:46.594Z,1.56
2019-01-30T14:17:17.343Z,1.45
2019-01-30T14:19:48.008Z,1.29
2019-01-30T14:22:18.648Z,1.30
2019-01-30T14:24:49.297Z,1.15
2019-01-30T14:27:19.968Z,1.14
2019-01-30T14:29:58.113Z,1.21
2019-01-30T14:32:22.984Z,1.28
2019-01-30T14:34:53.534Z,1.29
2019-01-30T14:37:24.415Z,1.26
2019-01-30T14:39:55.026Z,1.29
2019-01-30T14:42:25.898Z,1.23
2019-01-30T14:44:56.756Z,1.22
2019-01-30T14:47:27.377Z,1.17
2019-01-30T14:49:57.891Z,1.18
2019-01-30T14:52:28.537Z,1.11
2019-01-30T14:54:59.104Z,1.10
2019-01-30T14:57:29.790Z,1.05
2019-01-30T15:00:00.493Z,1.02
2019-01-30T15:02:31.142Z,0.98
2019-01-30T15:05:01.839Z,0.93
2019-01-30T15:07:32.621Z,0.85
2019-01-30T15:10:03.168Z,0.82
2019-01-30T15:12:34.067Z,0.72
2019-01-30T15:15:05.304Z,0.70
2019-01-30T15:17:35.899Z,0.68
2019-01-30T15:20:11.682Z,0.61
2019-01-30T15:22:42.247Z,0.53
2019-01-30T15:25:15.122Z,0.45
2019-01-30T15:27:45.729Z,0.40
2019-01-30T15:30:24.706Z,0.36
2019-01-30T15:32:55.461Z,0.30
2019-01-30T15:35:33.224Z,0.18
2019-01-30T15:37:58.456Z,0.17
2019-01-30T15:40:29.442Z,0.07
2019-01-30T15:43:00.054Z,0.05
2019-01-30T15:45:31.165Z,-0.02
2019-01-30T15:48:01.745Z,-0.04
2019-01-30T15:50:34.253Z,-0.12
2019-01-30T15:53:08.966Z,-0.11
2019-01-30T15:55:39.589Z,-0.17
2019-01-30T15:58:12.272Z,-0.22
2019-01-30T16:00:55.978Z,-0.22
2019-01-30T16:03:26.924Z,-0.25
2019-01-30T16:05:57.619Z,-0.23
2019-01-30T16:08:28.199Z,-0.28
2019-01-30T16:10:58.837Z,-0.26
2019-01-30T16:13:29.507Z,-0.27
2019-01-30T16:16:03.810Z,-0.29
2019-01-30T16:18:34.512Z,-0.31
2019-01-30T16:21:05.104Z,-0.34
2019-01-30T16:23:35.760Z,-0.32
2019-01-30T16:26:06.478Z,-0.35
2019-01-30T16:28:37.138Z,-0.34
2019-01-30T16:31:07.693Z,-0.28
2019-01-30T16:33:38.327Z,-0.27
2019-01-30T16:36:32.583Z,-0.31
2019-01-30T16:39:04.263Z,-0.34
2019-01-30T16:41:34.914Z,-0.35
2019-01-30T16:44:06.133Z,-0.39
2019-01-30T16:46:36.778Z,-0.42
2019-01-30T16:49:07.379Z,-0.40
2019-01-30T16:51:37.867Z,-0.50
2019-01-30T16:54:09.144Z,-0.47
2019-01-30T16:56:39.772Z,-0.47
2019-01-30T16:59:10.306Z,-0.48
2019-01-30T17:01:40.865Z,-0.53
2019-01-30T17:04:11.543Z,-0.53
2019-01-30T17:06:43.897Z,-0.52
2019-01-30T17:09:14.538Z,-0.54
2019-01-30T17:11:45.132Z,-0.53
2019-01-30T17:14:16.768Z,-0.54
2019-01-30T17:16:48.572Z,-0.58
2019-01-30T17:19:21.408Z,-0.56
2019-01-30T17:21:52.187Z,-0.60
2019-01-30T17:24:23.987Z,-0.66
2019-01-30T17:26:54.854Z,-0.66
2019-01-30T17:29:25.494Z,-0.69
2019-01-30T17:31:59.761Z,-0.68
2019-01-30T17:34:35.104Z,-0.73
2019-01-30T17:37:09.680Z,-0.74
2019-01-30T17:39:41.684Z,-0.78
2019-01-30T17:42:12.927Z,-0.82
2019-01-30T17:44:43.719Z,-0.87
2019-01-30T17:47:16.933Z,-0.89
2019-01-30T17:49:51.069Z,-0.92
2019-01-30T17:52:25.200Z,-0.93
2019-01-30T17:54:59.135Z,-0.92
2019-01-30T17:57:32.799Z,-0.98
2019-01-30T18:00:05.235Z,-0.99
2019-01-30T18:02:35.994Z,-1.02
2019-01-30T18:05:12.971Z,-1.07
2019-01-30T18:07:43.763Z,-1.06
2019-01-30T18:10:17.764Z,-1.17
2019-01-30T18:12:47.692Z,-1.16
2019-01-30T18:15:18.892Z,-1.22
2019-01-30T18:17:50.807Z,-1.27
2019-01-30T18:20:26.097Z,-1.23
2019-01-30T18:22:56.803Z,-1.26
2019-01-30T18:25:29.060Z,-1.29
2019-01-30T18:28:01.989Z,-1.25
2019-01-30T18:30:32.866Z,-1.33
2019-01-30T18:33:05.001Z,-1.32
2019-01-30T18:35:38.767Z,-1.40
2019-01-30T18:38:13.037Z,-1.37
2019-01-30T18:40:47.371Z,-1.40
2019-01-30T18:43:19.068Z,-1.41
2019-01-30T18:45:50.031Z,-1.44
2019-01-30T18:48:25.537Z,-1.47
2019-01-30T18:50:59.760Z,-1.46
2019-01-30T18:53:37.140Z,-1.47
2019-01-30T18:56:12.346Z,-1.52
2019-01-30T18:58:50.397Z,-1.57
2019-01-30T19:01:22.566Z,-1.56
2019-01-30T19:03:54.437Z,-1.56
2019-01-30T19:06:32.546Z,-1.57
2019-01-30T19:09:08.081Z,-1.54
2019-01-30T19:11:46.461Z,-1.55
2019-01-30T19:14:21.742Z,-1.53
2019-01-30T19:16:56.727Z,-1.51
2019-01-30T19:19:27.415Z,-1.56
2019-01-30T19:21:59.350Z,-1.59
2019-01-30T19:24:38.737Z,-1.68
2019-01-30T19:27:12.921Z,-1.78
2019-01-30T19:29:47.782Z,-1.86
2019-01-30T19:32:23.235Z,-1.92
2019-01-30T19:34:56.618Z,-1.96
2019-01-30T19:37:34.728Z,-2.02
2019-01-30T19:40:10.516Z,-2.06
2019-01-30T19:42:45.532Z,-2.16
2019-01-30T19:45:23.166Z,-2.12
2019-01-30T19:48:02.564Z,-2.10
2019-01-30T19:50:36.986Z,-2.07
2019-01-30T19:53:14.242Z,-2.11
2019-01-30T19:55:54.285Z,-2.23
2019-01-30T19:58:26.391Z,-2.24
2019-01-30T20:01:00.187Z,-2.37
2019-01-30T20:03:44.142Z,-2.46
2019-01-30T20:06:18.498Z,-2.53
2019-01-30T20:08:53.471Z,-2.58
2019-01-30T20:11:26.771Z,-2.60
2019-01-30T20:13:58.151Z,-2.62
2019-01-30T20:16:29.342Z,-2.62
2019-01-30T20:19:02.836Z,-2.66
2019-01-30T20:21:39.005Z,-2.66
2019-01-30T20:24:17.063Z,-2.56
2019-01-30T20:26:49.607Z,-2.60
2019-01-30T20:29:26.470Z,-2.60
2019-01-30T20:32:05.364Z,-2.54
2019-01-30T20:34:38.764Z,-2.49
2019-01-30T20:37:25.916Z,-2.49
2019-01-30T20:39:53.526Z,-2.49
2019-01-30T20:42:31.417Z,-2.54
2019-01-30T20:45:04.031Z,-2.59
2019-01-30T20:47:37.576Z,-2.67
2019-01-30T20:50:16.524Z,-2.70
2019-01-30T20:52:47.581Z,-2.74
2019-01-30T20:55:22.237Z,-2.78
2019-01-30T20:58:22.570Z,-2.81
2019-01-30T21:01:00.874Z,-2.88
2019-01-30T21:03:39.020Z,-2.96
2019-01-30T21:06:10.452Z,-3.03
2019-01-30T21:08:42.857Z,-3.07
2019-01-30T21:11:13.772Z,-3.22
2019-01-30T21:13:44.833Z,-3.34
2019-01-30T21:16:20.691Z,-3.35
2019-01-30T21:18:59.611Z,-3.32
2019-01-30T21:21:41.006Z,-3.23
2019-01-30T21:24:11.751Z,-3.08
2019-01-30T21:26:48.245Z,-2.94
2019-01-30T21:29:24.546Z,-2.85
2019-01-30T21:31:55.554Z,-2.78
2019-01-30T21:34:26.311Z,-2.76
2019-01-30T21:37:01.486Z,-2.76
2019-01-30T21:39:36.638Z,-2.73
2019-01-30T21:42:08.875Z,-2.71
2019-01-30T21:44:40.402Z,-2.72
2019-01-30T21:47:15.094Z,-2.77
2019-01-30T21:49:50.885Z,-2.86
2019-01-30T21:52:25.076Z,-2.98
2019-01-30T21:54:55.674Z,-3.02
2019-01-30T21:57:26.549Z,-3.09
2019-01-30T22:00:01.497Z,-3.10
2019-01-30T22:02:33.039Z,-3.16
2019-01-30T22:05:03.569Z,-3.10
2019-01-30T22:07:35.419Z,-3.07
2019-01-30T22:10:08.680Z,-3.12
2019-01-30T22:12:39.316Z,-3.16
2019-01-30T22:15:16.364Z,-3.24
2019-01-30T22:17:47.255Z,-3.28
2019-01-30T22:20:21.113Z,-3.11
2019-01-30T22:22:51.865Z,-3.02
2019-01-30T22:25:23.356Z,-2.98
2019-01-30T22:27:57.551Z,-2.92
2019-01-30T22:30:33.585Z,-2.93
2019-01-30T22:33:04.574Z,-2.94
2019-01-30T22:35:35.143Z,-2.93
2019-01-30T22:38:12.467Z,-2.95
2019-01-30T22:40:38.957Z,-2.92
2019-01-30T22:43:09.643Z,-2.96
2019-01-30T22:45:40.306Z,-2.95
2019-01-30T22:48:11.010Z,-2.99
2019-01-30T22:50:41.680Z,-2.96
2019-01-30T22:53:12.360Z,-3.01
2019-01-30T22:55:42.999Z,-3.02
2019-01-30T22:58:14.266Z,-3.10
2019-01-30T23:01:32.477Z,-3.12
2019-01-30T23:04:51.575Z,-3.10
2019-01-30T23:08:00.158Z,-3.14
2019-01-30T23:11:22.542Z,-3.20
2019-01-30T23:14:04.161Z,-3.28
2019-01-30T23:17:16.451Z,-3.26
2019-01-30T23:20:28.032Z,-3.27
2019-01-30T23:23:56.016Z,-3.32
2019-01-30T23:26:57.979Z,-3.38
2019-01-30T23:30:07.201Z,-3.41
2019-01-30T23:33:20.531Z,-3.43
2019-01-30T23:36:40.641Z,-3.42
2019-01-30T23:39:44.328Z,-3.47
2019-01-30T23:43:02.381Z,-3.56
2019-01-30T23:46:08.434Z,-3.64
2019-01-30T23:49:30.345Z,-3.71
2019-01-30T23:52:35.080Z,-3.79
2019-01-30T23:55:47.188Z,-3.83
2019-01-30T23:59:08.981Z,-3.87
